sensor_id;sensor_type;location;lat;lon;timestamp;temperature;humidity
9949;DHT22;5013;51.840;8.276;2023-07-20T00:00:25;17.70;1.00
9949;DHT22;5013;51.840;8.276;2023-07-20T00:02:51;17.60;1.00
9949;DHT22;5013;51.840;8.276;2023-07-20T00:05:17;17.50;1.00
9949;DHT22;5013;51.840;8.276;2023-07-20T00:07:50;17.50;94.50
9949;DHT22;5013;51.840;8.276;2023-07-20T00:10:17;17.50;56.10
9949;DHT22;5013;51.840;8.276;2023-07-20T00:12:43;17.50;53.70
9949;DHT22;5013;51.840;8.276;2023-07-20T00:15:13;17.50;91.20
9949;DHT22;5013;51.840;8.276;2023-07-20T00:17:38;17.60;55.90
9949;DHT22;5013;51.840;8.276;2023-07-20T00:20:05;17.60;99.90
9949;DHT22;5013;51.840;8.276;2023-07-20T00:22:31;17.50;1.00
9949;DHT22;5013;51.840;8.276;2023-07-20T00:24:57;17.60;1.00
9949;DHT22;5013;51.840;8.276;2023-07-20T00:27:22;17.60;1.00
9949;DHT22;5013;51.840;8.276;2023-07-20T00:29:48;17.50;1.00
9949;DHT22;5013;51.840;8.276;2023-07-20T00:32:13;17.50;1.00
9949;DHT22;5013;51.840;8.276;2023-07-20T00:34:39;17.40;20.20
9949;DHT22;5013;51.840;8.276;2023-07-20T00:37:04;17.40;35.70
9949;DHT22;5013;51.840;8.276;2023-07-20T00:39:30;17.50;78.00
9949;DHT22;5013;51.840;8.276;2023-07-20T00:41:56;17.50;70.30
9949;DHT22;5013;51.840;8.276;2023-07-20T00:44:21;17.40;1.00
9949;DHT22;5013;51.840;8.276;2023-07-20T00:46:47;17.30;1.00
9949;DHT22;5013;51.840;8.276;2023-07-20T00:49:14;17.30;30.60
9949;DHT22;5013;51.840;8.276;2023-07-20T00:51:39;17.40;96.60
9949;DHT22;5013;51.840;8.276;2023-07-20T00:54:05;17.20;1.00
9949;DHT22;5013;51.840;8.276;2023-07-20T00:56:31;17.30;92.20
9949;DHT22;5013;51.840;8.276;2023-07-20T00:58:57;17.30;99.90
9949;DHT22;5013;51.840;8.276;2023-07-20T01:01:23;17.30;99.90
9949;DHT22;5013;51.840;8.276;2023-07-20T01:03:48;17.30;24.90
9949;DHT22;5013;51.840;8.276;2023-07-20T01:06:29;17.40;56.50
9949;DHT22;5013;51.840;8.276;2023-07-20T01:14:34;17.30;1.00
9949;DHT22;5013;51.840;8.276;2023-07-20T01:17:01;17.30;21.80
9949;DHT22;5013;51.840;8.276;2023-07-20T01:19:26;17.20;14.30
9949;DHT22;5013;51.840;8.276;2023-07-20T01:32:54;17.10;19.00
9949;DHT22;5013;51.840;8.276;2023-07-20T01:35:23;17.00;91.10
9949;DHT22;5013;51.840;8.276;2023-07-20T01:37:52;17.10;95.30
9949;DHT22;5013;51.840;8.276;2023-07-20T01:40:20;17.00;1.00
9949;DHT22;5013;51.840;8.276;2023-07-20T01:42:47;16.90;47.50
9949;DHT22;5013;51.840;8.276;2023-07-20T01:45:12;16.90;16.20
9949;DHT22;5013;51.840;8.276;2023-07-20T01:47:38;16.90;95.60
9949;DHT22;5013;51.840;8.276;2023-07-20T01:50:04;16.90;99.90
9949;DHT22;5013;51.840;8.276;2023-07-20T01:52:30;16.90;99.90
9949;DHT22;5013;51.840;8.276;2023-07-20T01:54:56;16.90;99.90
9949;DHT22;5013;51.840;8.276;2023-07-20T01:57:21;16.90;99.90
9949;DHT22;5013;51.840;8.276;2023-07-20T01:59:47;16.80;99.90
9949;DHT22;5013;51.840;8.276;2023-07-20T02:02:12;17.00;99.90
9949;DHT22;5013;51.840;8.276;2023-07-20T02:04:38;16.90;15.10
9949;DHT22;5013;51.840;8.276;2023-07-20T02:07:03;17.00;93.50
9949;DHT22;5013;51.840;8.276;2023-07-20T02:09:29;16.90;99.90
9949;DHT22;5013;51.840;8.276;2023-07-20T02:11:55;16.90;17.80
9949;DHT22;5013;51.840;8.276;2023-07-20T02:14:20;17.00;58.40
9949;DHT22;5013;51.840;8.276;2023-07-20T02:16:48;17.00;66.40
9949;DHT22;5013;51.840;8.276;2023-07-20T02:19:17;17.00;99.90
9949;DHT22;5013;51.840;8.276;2023-07-20T02:21:42;16.90;2.90
9949;DHT22;5013;51.840;8.276;2023-07-20T02:24:08;17.00;45.10
9949;DHT22;5013;51.840;8.276;2023-07-20T02:26:33;17.00;1.00
9949;DHT22;5013;51.840;8.276;2023-07-20T02:28:59;17.00;1.00
9949;DHT22;5013;51.840;8.276;2023-07-20T02:31:24;16.90;1.00
9949;DHT22;5013;51.840;8.276;2023-07-20T02:33:50;16.90;28.10
9949;DHT22;5013;51.840;8.276;2023-07-20T02:36:15;17.00;54.30
9949;DHT22;5013;51.840;8.276;2023-07-20T02:38:42;17.00;34.60
9949;DHT22;5013;51.840;8.276;2023-07-20T02:41:08;16.90;6.70
9949;DHT22;5013;51.840;8.276;2023-07-20T02:43:33;16.90;1.10
9949;DHT22;5013;51.840;8.276;2023-07-20T02:45:59;16.90;15.20
9949;DHT22;5013;51.840;8.276;2023-07-20T02:48:24;16.80;1.00
9949;DHT22;5013;51.840;8.276;2023-07-20T02:50:50;16.90;13.40
9949;DHT22;5013;51.840;8.276;2023-07-20T02:53:15;16.90;77.90
9949;DHT22;5013;51.840;8.276;2023-07-20T02:55:41;16.90;1.00
9949;DHT22;5013;51.840;8.276;2023-07-20T02:58:06;16.80;8.30
9949;DHT22;5013;51.840;8.276;2023-07-20T03:00:32;16.90;12.00
9949;DHT22;5013;51.840;8.276;2023-07-20T03:02:58;16.80;30.40
9949;DHT22;5013;51.840;8.276;2023-07-20T03:05:24;16.90;18.60
9949;DHT22;5013;51.840;8.276;2023-07-20T03:07:50;16.90;1.00
9949;DHT22;5013;51.840;8.276;2023-07-20T03:10:16;16.90;1.00
9949;DHT22;5013;51.840;8.276;2023-07-20T03:12:42;16.90;1.00
9949;DHT22;5013;51.840;8.276;2023-07-20T03:15:08;16.90;1.00
9949;DHT22;5013;51.840;8.276;2023-07-20T03:17:34;16.80;1.00
9949;DHT22;5013;51.840;8.276;2023-07-20T03:20:00;16.70;1.00
9949;DHT22;5013;51.840;8.276;2023-07-20T03:22:26;16.70;1.00
9949;DHT22;5013;51.840;8.276;2023-07-20T03:24:52;16.80;99.90
9949;DHT22;5013;51.840;8.276;2023-07-20T03:27:18;16.70;31.80
9949;DHT22;5013;51.840;8.276;2023-07-20T03:29:43;16.70;1.00
9949;DHT22;5013;51.840;8.276;2023-07-20T03:32:09;16.60;1.00
9949;DHT22;5013;51.840;8.276;2023-07-20T03:34:36;16.60;1.00
9949;DHT22;5013;51.840;8.276;2023-07-20T03:37:01;16.50;88.60
9949;DHT22;5013;51.840;8.276;2023-07-20T03:39:29;16.50;94.80
9949;DHT22;5013;51.840;8.276;2023-07-20T03:41:55;16.50;99.90
9949;DHT22;5013;51.840;8.276;2023-07-20T03:44:20;16.50;99.90
9949;DHT22;5013;51.840;8.276;2023-07-20T03:46:46;16.50;99.90
9949;DHT22;5013;51.840;8.276;2023-07-20T03:49:12;16.50;99.90
9949;DHT22;5013;51.840;8.276;2023-07-20T03:51:37;16.40;99.90
9949;DHT22;5013;51.840;8.276;2023-07-20T03:54:03;16.30;99.90
9949;DHT22;5013;51.840;8.276;2023-07-20T03:56:28;16.30;99.90
9949;DHT22;5013;51.840;8.276;2023-07-20T03:58:54;16.20;99.90
9949;DHT22;5013;51.840;8.276;2023-07-20T04:01:20;16.10;99.90
9949;DHT22;5013;51.840;8.276;2023-07-20T04:03:45;16.10;99.90
9949;DHT22;5013;51.840;8.276;2023-07-20T04:06:11;16.10;99.90
9949;DHT22;5013;51.840;8.276;2023-07-20T04:08:37;16.10;99.90
9949;DHT22;5013;51.840;8.276;2023-07-20T04:11:02;16.20;99.90
9949;DHT22;5013;51.840;8.276;2023-07-20T04:13:28;16.10;99.90
9949;DHT22;5013;51.840;8.276;2023-07-20T04:15:54;16.10;99.90
9949;DHT22;5013;51.840;8.276;2023-07-20T04:18:20;16.00;99.90
9949;DHT22;5013;51.840;8.276;2023-07-20T04:20:46;15.90;99.90
9949;DHT22;5013;51.840;8.276;2023-07-20T04:23:12;16.00;99.90
9949;DHT22;5013;51.840;8.276;2023-07-20T04:25:39;16.00;99.90
9949;DHT22;5013;51.840;8.276;2023-07-20T04:28:08;15.90;99.90
9949;DHT22;5013;51.840;8.276;2023-07-20T04:30:35;16.00;99.90
9949;DHT22;5013;51.840;8.276;2023-07-20T04:33:02;15.90;99.90
9949;DHT22;5013;51.840;8.276;2023-07-20T04:38:11;16.00;99.90
9949;DHT22;5013;51.840;8.276;2023-07-20T04:40:37;16.00;99.90
9949;DHT22;5013;51.840;8.276;2023-07-20T04:43:02;15.90;99.90
9949;DHT22;5013;51.840;8.276;2023-07-20T04:45:28;15.80;99.90
9949;DHT22;5013;51.840;8.276;2023-07-20T04:47:54;15.80;99.90
9949;DHT22;5013;51.840;8.276;2023-07-20T04:50:19;15.80;99.90
9949;DHT22;5013;51.840;8.276;2023-07-20T04:52:45;15.80;99.90
9949;DHT22;5013;51.840;8.276;2023-07-20T04:55:11;15.90;99.90
9949;DHT22;5013;51.840;8.276;2023-07-20T04:57:37;15.90;99.90
9949;DHT22;5013;51.840;8.276;2023-07-20T05:00:03;15.90;99.90
9949;DHT22;5013;51.840;8.276;2023-07-20T05:02:29;15.80;99.90
9949;DHT22;5013;51.840;8.276;2023-07-20T05:04:54;15.90;99.90
9949;DHT22;5013;51.840;8.276;2023-07-20T05:07:20;15.90;90.80
9949;DHT22;5013;51.840;8.276;2023-07-20T05:09:45;15.90;96.70
9949;DHT22;5013;51.840;8.276;2023-07-20T05:12:11;16.10;81.60
9949;DHT22;5013;51.840;8.276;2023-07-20T05:14:38;16.20;99.90
9949;DHT22;5013;51.840;8.276;2023-07-20T05:17:03;16.40;1.00
9949;DHT22;5013;51.840;8.276;2023-07-20T05:19:29;17.00;1.00
9949;DHT22;5013;51.840;8.276;2023-07-20T05:21:55;17.90;1.00
9949;DHT22;5013;51.840;8.276;2023-07-20T05:24:20;19.00;99.90
9949;DHT22;5013;51.840;8.276;2023-07-20T05:26:46;19.50;1.00
9949;DHT22;5013;51.840;8.276;2023-07-20T05:29:11;19.30;1.00
9949;DHT22;5013;51.840;8.276;2023-07-20T05:31:37;18.40;1.00
9949;DHT22;5013;51.840;8.276;2023-07-20T05:34:02;17.90;13.50
9949;DHT22;5013;51.840;8.276;2023-07-20T05:36:28;17.70;1.00
9949;DHT22;5013;51.840;8.276;2023-07-20T05:38:53;17.70;99.90
9949;DHT22;5013;51.840;8.276;2023-07-20T05:41:19;18.20;99.90
9949;DHT22;5013;51.840;8.276;2023-07-20T05:43:45;17.90;99.90
9949;DHT22;5013;51.840;8.276;2023-07-20T05:46:10;17.90;1.00
9949;DHT22;5013;51.840;8.276;2023-07-20T05:48:36;17.50;99.90
9949;DHT22;5013;51.840;8.276;2023-07-20T05:51:02;17.40;1.00
9949;DHT22;5013;51.840;8.276;2023-07-20T05:53:27;17.20;99.90
9949;DHT22;5013;51.840;8.276;2023-07-20T05:55:53;17.00;99.90
9949;DHT22;5013;51.840;8.276;2023-07-20T05:58:19;16.90;1.00
9949;DHT22;5013;51.840;8.276;2023-07-20T06:00:48;16.70;1.00
9949;DHT22;5013;51.840;8.276;2023-07-20T06:03:14;16.90;1.00
9949;DHT22;5013;51.840;8.276;2023-07-20T06:05:39;16.90;99.90
9949;DHT22;5013;51.840;8.276;2023-07-20T06:08:05;17.00;1.00
9949;DHT22;5013;51.840;8.276;2023-07-20T06:10:30;17.10;28.70
9949;DHT22;5013;51.840;8.276;2023-07-20T06:12:56;16.80;1.00
9949;DHT22;5013;51.840;8.276;2023-07-20T06:15:48;16.70;96.90
9949;DHT22;5013;51.840;8.276;2023-07-20T06:18:13;16.60;99.90
9949;DHT22;5013;51.840;8.276;2023-07-20T06:20:39;16.60;99.90
9949;DHT22;5013;51.840;8.276;2023-07-20T06:23:05;17.30;1.00
9949;DHT22;5013;51.840;8.276;2023-07-20T06:25:30;17.90;1.00
9949;DHT22;5013;51.840;8.276;2023-07-20T06:27:56;18.50;1.00
9949;DHT22;5013;51.840;8.276;2023-07-20T06:30:22;18.90;73.10
9949;DHT22;5013;51.840;8.276;2023-07-20T06:32:48;19.30;99.90
9949;DHT22;5013;51.840;8.276;2023-07-20T06:35:15;19.20;99.90
9949;DHT22;5013;51.840;8.276;2023-07-20T06:37:41;19.60;99.90
9949;DHT22;5013;51.840;8.276;2023-07-20T06:40:07;19.20;1.00
9949;DHT22;5013;51.840;8.276;2023-07-20T06:42:34;19.60;20.20
9949;DHT22;5013;51.840;8.276;2023-07-20T06:45:00;19.80;99.90
9949;DHT22;5013;51.840;8.276;2023-07-20T06:47:26;19.60;99.90
9949;DHT22;5013;51.840;8.276;2023-07-20T06:49:52;19.50;43.80
9949;DHT22;5013;51.840;8.276;2023-07-20T06:52:17;19.50;99.90
9949;DHT22;5013;51.840;8.276;2023-07-20T06:54:43;19.70;99.90
9949;DHT22;5013;51.840;8.276;2023-07-20T06:57:08;19.30;99.90
9949;DHT22;5013;51.840;8.276;2023-07-20T06:59:34;19.30;1.00
9949;DHT22;5013;51.840;8.276;2023-07-20T07:02:00;19.20;1.00
9949;DHT22;5013;51.840;8.276;2023-07-20T07:04:25;19.00;1.00
9949;DHT22;5013;51.840;8.276;2023-07-20T07:06:51;18.90;17.80
9949;DHT22;5013;51.840;8.276;2023-07-20T07:09:17;19.10;99.90
9949;DHT22;5013;51.840;8.276;2023-07-20T07:11:43;19.40;1.00
9949;DHT22;5013;51.840;8.276;2023-07-20T07:14:08;20.10;1.00
9949;DHT22;5013;51.840;8.276;2023-07-20T07:16:34;20.40;1.00
9949;DHT22;5013;51.840;8.276;2023-07-20T07:18:59;20.40;99.90
9949;DHT22;5013;51.840;8.276;2023-07-20T07:21:25;20.40;1.00
9949;DHT22;5013;51.840;8.276;2023-07-20T07:23:51;20.80;1.00
9949;DHT22;5013;51.840;8.276;2023-07-20T07:26:18;21.00;99.90
9949;DHT22;5013;51.840;8.276;2023-07-20T07:28:44;21.30;99.90
9949;DHT22;5013;51.840;8.276;2023-07-20T07:31:10;21.40;99.90
9949;DHT22;5013;51.840;8.276;2023-07-20T07:33:35;20.60;99.90
9949;DHT22;5013;51.840;8.276;2023-07-20T07:36:01;20.30;99.90
9949;DHT22;5013;51.840;8.276;2023-07-20T07:38:27;20.00;99.90
9949;DHT22;5013;51.840;8.276;2023-07-20T07:40:52;20.40;99.90
9949;DHT22;5013;51.840;8.276;2023-07-20T07:43:18;20.70;99.90
9949;DHT22;5013;51.840;8.276;2023-07-20T07:45:44;21.20;1.00
9949;DHT22;5013;51.840;8.276;2023-07-20T07:48:09;21.20;41.20
9949;DHT22;5013;51.840;8.276;2023-07-20T07:50:38;21.40;99.90
9949;DHT22;5013;51.840;8.276;2023-07-20T07:53:05;21.00;99.90
9949;DHT22;5013;51.840;8.276;2023-07-20T07:55:32;20.40;1.00
9949;DHT22;5013;51.840;8.276;2023-07-20T07:57:58;20.40;1.00
9949;DHT22;5013;51.840;8.276;2023-07-20T08:00:23;20.40;1.00
9949;DHT22;5013;51.840;8.276;2023-07-20T08:02:50;20.20;1.00
9949;DHT22;5013;51.840;8.276;2023-07-20T08:05:16;19.80;99.90
9949;DHT22;5013;51.840;8.276;2023-07-20T08:07:42;19.80;99.90
9949;DHT22;5013;51.840;8.276;2023-07-20T08:10:08;19.70;60.00
9949;DHT22;5013;51.840;8.276;2023-07-20T08:12:35;19.70;1.00
9949;DHT22;5013;51.840;8.276;2023-07-20T08:15:00;19.70;1.00
9949;DHT22;5013;51.840;8.276;2023-07-20T08:17:26;20.20;99.90
9949;DHT22;5013;51.840;8.276;2023-07-20T08:19:51;20.30;99.90
9949;DHT22;5013;51.840;8.276;2023-07-20T08:22:17;20.50;1.00
9949;DHT22;5013;51.840;8.276;2023-07-20T08:24:43;20.60;1.00
9949;DHT22;5013;51.840;8.276;2023-07-20T08:27:09;20.90;1.00
9949;DHT22;5013;51.840;8.276;2023-07-20T08:29:36;21.30;1.00
9949;DHT22;5013;51.840;8.276;2023-07-20T08:32:03;21.50;1.00
9949;DHT22;5013;51.840;8.276;2023-07-20T08:34:29;21.90;1.00
9949;DHT22;5013;51.840;8.276;2023-07-20T08:36:55;21.90;1.00
9949;DHT22;5013;51.840;8.276;2023-07-20T08:39:21;21.40;1.00
9949;DHT22;5013;51.840;8.276;2023-07-20T08:41:48;21.50;1.00
9949;DHT22;5013;51.840;8.276;2023-07-20T08:44:14;21.80;1.00
9949;DHT22;5013;51.840;8.276;2023-07-20T08:46:41;21.80;1.00
9949;DHT22;5013;51.840;8.276;2023-07-20T08:49:08;21.90;1.00
9949;DHT22;5013;51.840;8.276;2023-07-20T08:51:35;21.90;1.00
9949;DHT22;5013;51.840;8.276;2023-07-20T08:54:02;22.10;1.00
9949;DHT22;5013;51.840;8.276;2023-07-20T08:56:30;22.10;1.00
9949;DHT22;5013;51.840;8.276;2023-07-20T08:58:56;22.50;1.00
9949;DHT22;5013;51.840;8.276;2023-07-20T09:01:22;22.70;1.00
9949;DHT22;5013;51.840;8.276;2023-07-20T09:03:48;22.70;1.00
9949;DHT22;5013;51.840;8.276;2023-07-20T09:06:14;22.50;1.00
9949;DHT22;5013;51.840;8.276;2023-07-20T09:08:40;22.30;1.00
9949;DHT22;5013;51.840;8.276;2023-07-20T09:11:06;22.80;1.00
9949;DHT22;5013;51.840;8.276;2023-07-20T09:13:33;22.40;1.00
9949;DHT22;5013;51.840;8.276;2023-07-20T09:15:59;22.10;1.00
9949;DHT22;5013;51.840;8.276;2023-07-20T09:18:29;21.70;1.00
9949;DHT22;5013;51.840;8.276;2023-07-20T09:21:03;21.40;1.00
9949;DHT22;5013;51.840;8.276;2023-07-20T09:23:36;21.60;1.00
9949;DHT22;5013;51.840;8.276;2023-07-20T09:26:12;22.00;1.00
9949;DHT22;5013;51.840;8.276;2023-07-20T09:28:49;22.40;1.00
9949;DHT22;5013;51.840;8.276;2023-07-20T09:31:19;22.50;1.00
9949;DHT22;5013;51.840;8.276;2023-07-20T09:33:46;22.80;1.00
9949;DHT22;5013;51.840;8.276;2023-07-20T09:36:12;22.50;1.00
9949;DHT22;5013;51.840;8.276;2023-07-20T09:38:39;22.80;1.00
9949;DHT22;5013;51.840;8.276;2023-07-20T09:41:05;23.30;1.00
9949;DHT22;5013;51.840;8.276;2023-07-20T09:43:35;23.40;1.00
9949;DHT22;5013;51.840;8.276;2023-07-20T09:46:00;23.60;1.00
9949;DHT22;5013;51.840;8.276;2023-07-20T09:48:26;23.40;1.00
9949;DHT22;5013;51.840;8.276;2023-07-20T09:50:53;22.70;1.00
9949;DHT22;5013;51.840;8.276;2023-07-20T09:53:19;22.20;1.00
9949;DHT22;5013;51.840;8.276;2023-07-20T09:55:46;22.40;1.00
9949;DHT22;5013;51.840;8.276;2023-07-20T09:58:12;23.00;1.00
9949;DHT22;5013;51.840;8.276;2023-07-20T10:00:39;23.60;1.00
9949;DHT22;5013;51.840;8.276;2023-07-20T10:03:06;23.60;1.00
9949;DHT22;5013;51.840;8.276;2023-07-20T10:05:39;23.40;1.00
9949;DHT22;5013;51.840;8.276;2023-07-20T10:08:07;23.10;1.00
9949;DHT22;5013;51.840;8.276;2023-07-20T10:10:35;23.10;1.00
9949;DHT22;5013;51.840;8.276;2023-07-20T10:13:01;23.10;1.00
9949;DHT22;5013;51.840;8.276;2023-07-20T10:15:34;22.80;1.00
9949;DHT22;5013;51.840;8.276;2023-07-20T10:18:11;23.10;1.00
9949;DHT22;5013;51.840;8.276;2023-07-20T10:20:40;23.20;1.00
9949;DHT22;5013;51.840;8.276;2023-07-20T10:23:07;23.60;1.00
9949;DHT22;5013;51.840;8.276;2023-07-20T10:25:33;23.70;1.00
9949;DHT22;5013;51.840;8.276;2023-07-20T10:28:06;23.90;1.00
9949;DHT22;5013;51.840;8.276;2023-07-20T10:30:36;23.90;1.00
9949;DHT22;5013;51.840;8.276;2023-07-20T10:33:03;23.70;1.00
9949;DHT22;5013;51.840;8.276;2023-07-20T10:35:29;22.90;1.00
9949;DHT22;5013;51.840;8.276;2023-07-20T10:38:04;22.60;1.00
9949;DHT22;5013;51.840;8.276;2023-07-20T10:40:37;22.40;1.00
9949;DHT22;5013;51.840;8.276;2023-07-20T10:43:05;22.80;1.00
9949;DHT22;5013;51.840;8.276;2023-07-20T10:45:36;23.50;1.00
9949;DHT22;5013;51.840;8.276;2023-07-20T10:48:06;23.90;1.00
9949;DHT22;5013;51.840;8.276;2023-07-20T10:50:33;23.50;1.00
9949;DHT22;5013;51.840;8.276;2023-07-20T10:53:16;22.80;1.00
9949;DHT22;5013;51.840;8.276;2023-07-20T10:55:42;22.70;1.00
9949;DHT22;5013;51.840;8.276;2023-07-20T10:58:13;23.10;1.00
9949;DHT22;5013;51.840;8.276;2023-07-20T11:01:00;23.20;1.00
9949;DHT22;5013;51.840;8.276;2023-07-20T11:03:27;23.50;1.00
9949;DHT22;5013;51.840;8.276;2023-07-20T11:05:53;23.30;1.00
9949;DHT22;5013;51.840;8.276;2023-07-20T11:08:39;23.10;1.00
9949;DHT22;5013;51.840;8.276;2023-07-20T11:11:22;23.10;1.00
9949;DHT22;5013;51.840;8.276;2023-07-20T11:13:58;23.50;1.00
9949;DHT22;5013;51.840;8.276;2023-07-20T11:19:00;24.30;1.00
9949;DHT22;5013;51.840;8.276;2023-07-20T11:21:26;24.20;1.00
9949;DHT22;5013;51.840;8.276;2023-07-20T11:23:52;24.00;1.00
9949;DHT22;5013;51.840;8.276;2023-07-20T11:26:18;23.90;1.00
9949;DHT22;5013;51.840;8.276;2023-07-20T11:28:51;23.70;1.00
9949;DHT22;5013;51.840;8.276;2023-07-20T11:31:18;23.20;1.00
9949;DHT22;5013;51.840;8.276;2023-07-20T11:33:44;22.90;1.00
9949;DHT22;5013;51.840;8.276;2023-07-20T11:36:10;22.90;1.00
9949;DHT22;5013;51.840;8.276;2023-07-20T11:38:35;23.20;1.00
9949;DHT22;5013;51.840;8.276;2023-07-20T11:41:04;23.60;1.00
9949;DHT22;5013;51.840;8.276;2023-07-20T11:43:30;23.90;1.00
9949;DHT22;5013;51.840;8.276;2023-07-20T11:45:56;23.70;1.00
9949;DHT22;5013;51.840;8.276;2023-07-20T11:48:22;23.60;1.00
9949;DHT22;5013;51.840;8.276;2023-07-20T11:50:48;23.40;1.00
9949;DHT22;5013;51.840;8.276;2023-07-20T11:53:14;23.80;1.00
9949;DHT22;5013;51.840;8.276;2023-07-20T11:55:41;23.60;1.00
9949;DHT22;5013;51.840;8.276;2023-07-20T11:58:08;23.60;1.00
9949;DHT22;5013;51.840;8.276;2023-07-20T12:00:35;23.30;1.00
9949;DHT22;5013;51.840;8.276;2023-07-20T12:03:01;23.50;1.00
9949;DHT22;5013;51.840;8.276;2023-07-20T12:05:30;23.70;1.00
9949;DHT22;5013;51.840;8.276;2023-07-20T12:07:55;23.60;1.00
9949;DHT22;5013;51.840;8.276;2023-07-20T12:10:30;23.20;1.00
9949;DHT22;5013;51.840;8.276;2023-07-20T12:13:03;23.00;1.00
9949;DHT22;5013;51.840;8.276;2023-07-20T12:15:32;23.10;1.00
9949;DHT22;5013;51.840;8.276;2023-07-20T12:18:00;23.20;1.00
9949;DHT22;5013;51.840;8.276;2023-07-20T12:22:55;23.50;1.00
9949;DHT22;5013;51.840;8.276;2023-07-20T12:25:21;23.80;1.00
9949;DHT22;5013;51.840;8.276;2023-07-20T12:27:48;23.90;1.00
9949;DHT22;5013;51.840;8.276;2023-07-20T12:30:14;24.10;1.00
9949;DHT22;5013;51.840;8.276;2023-07-20T12:32:40;24.20;1.00
9949;DHT22;5013;51.840;8.276;2023-07-20T12:35:06;23.90;1.00
9949;DHT22;5013;51.840;8.276;2023-07-20T12:37:32;23.80;1.00
9949;DHT22;5013;51.840;8.276;2023-07-20T12:39:58;23.90;1.00
9949;DHT22;5013;51.840;8.276;2023-07-20T12:42:23;24.30;1.00
9949;DHT22;5013;51.840;8.276;2023-07-20T12:44:49;24.30;1.00
9949;DHT22;5013;51.840;8.276;2023-07-20T12:47:19;24.50;1.00
9949;DHT22;5013;51.840;8.276;2023-07-20T12:49:44;24.60;1.00
9949;DHT22;5013;51.840;8.276;2023-07-20T12:52:10;24.40;1.00
9949;DHT22;5013;51.840;8.276;2023-07-20T12:54:36;24.40;1.00
9949;DHT22;5013;51.840;8.276;2023-07-20T12:57:02;24.60;1.00
9949;DHT22;5013;51.840;8.276;2023-07-20T12:59:29;24.80;1.00
9949;DHT22;5013;51.840;8.276;2023-07-20T13:01:54;25.00;1.00
9949;DHT22;5013;51.840;8.276;2023-07-20T13:04:20;24.90;1.00
9949;DHT22;5013;51.840;8.276;2023-07-20T13:06:45;24.50;1.00
9949;DHT22;5013;51.840;8.276;2023-07-20T13:09:11;24.10;1.00
9949;DHT22;5013;51.840;8.276;2023-07-20T13:11:37;23.80;1.00
9949;DHT22;5013;51.840;8.276;2023-07-20T13:14:02;23.70;1.00
9949;DHT22;5013;51.840;8.276;2023-07-20T13:16:28;24.00;1.00
9949;DHT22;5013;51.840;8.276;2023-07-20T13:18:53;24.30;1.00
9949;DHT22;5013;51.840;8.276;2023-07-20T13:21:19;24.60;1.00
9949;DHT22;5013;51.840;8.276;2023-07-20T13:23:48;24.60;1.00
9949;DHT22;5013;51.840;8.276;2023-07-20T13:26:15;24.50;1.00
9949;DHT22;5013;51.840;8.276;2023-07-20T13:28:41;24.50;1.00
9949;DHT22;5013;51.840;8.276;2023-07-20T13:31:06;24.40;1.00
9949;DHT22;5013;51.840;8.276;2023-07-20T13:33:34;24.30;1.00
9949;DHT22;5013;51.840;8.276;2023-07-20T13:36:00;24.40;1.00
9949;DHT22;5013;51.840;8.276;2023-07-20T13:38:25;24.60;1.00
9949;DHT22;5013;51.840;8.276;2023-07-20T13:40:51;24.70;1.00
9949;DHT22;5013;51.840;8.276;2023-07-20T13:43:17;24.50;1.00
9949;DHT22;5013;51.840;8.276;2023-07-20T13:45:42;24.10;1.00
9949;DHT22;5013;51.840;8.276;2023-07-20T13:48:08;23.80;1.00
9949;DHT22;5013;51.840;8.276;2023-07-20T13:50:34;24.00;1.00
9949;DHT22;5013;51.840;8.276;2023-07-20T13:52:59;23.90;1.00
9949;DHT22;5013;51.840;8.276;2023-07-20T13:55:28;24.00;1.00
9949;DHT22;5013;51.840;8.276;2023-07-20T13:57:53;23.80;1.00
9949;DHT22;5013;51.840;8.276;2023-07-20T14:00:19;23.70;1.00
9949;DHT22;5013;51.840;8.276;2023-07-20T14:02:44;23.70;1.00
9949;DHT22;5013;51.840;8.276;2023-07-20T14:05:10;23.70;1.00
9949;DHT22;5013;51.840;8.276;2023-07-20T14:07:35;23.80;1.00
9949;DHT22;5013;51.840;8.276;2023-07-20T14:10:02;23.90;1.00
9949;DHT22;5013;51.840;8.276;2023-07-20T14:12:28;24.10;1.00
9949;DHT22;5013;51.840;8.276;2023-07-20T14:14:54;24.20;1.00
9949;DHT22;5013;51.840;8.276;2023-07-20T14:17:21;24.20;1.00
9949;DHT22;5013;51.840;8.276;2023-07-20T14:19:47;24.20;1.00
9949;DHT22;5013;51.840;8.276;2023-07-20T14:22:12;24.30;1.00
9949;DHT22;5013;51.840;8.276;2023-07-20T14:24:38;24.60;1.00
9949;DHT22;5013;51.840;8.276;2023-07-20T14:27:04;24.70;1.00
9949;DHT22;5013;51.840;8.276;2023-07-20T14:29:29;24.60;1.00
9949;DHT22;5013;51.840;8.276;2023-07-20T14:31:57;24.50;1.00
9949;DHT22;5013;51.840;8.276;2023-07-20T14:34:23;24.50;1.00
9949;DHT22;5013;51.840;8.276;2023-07-20T14:36:48;24.20;1.00
9949;DHT22;5013;51.840;8.276;2023-07-20T14:39:15;24.20;1.00
9949;DHT22;5013;51.840;8.276;2023-07-20T14:41:40;24.30;1.00
9949;DHT22;5013;51.840;8.276;2023-07-20T14:44:06;24.60;1.00
9949;DHT22;5013;51.840;8.276;2023-07-20T14:46:32;24.50;1.00
9949;DHT22;5013;51.840;8.276;2023-07-20T14:48:57;24.30;1.00
9949;DHT22;5013;51.840;8.276;2023-07-20T14:51:23;24.30;1.00
9949;DHT22;5013;51.840;8.276;2023-07-20T14:53:49;24.20;1.00
9949;DHT22;5013;51.840;8.276;2023-07-20T14:56:15;24.10;1.00
9949;DHT22;5013;51.840;8.276;2023-07-20T14:58:40;23.80;1.00
9949;DHT22;5013;51.840;8.276;2023-07-20T15:01:06;23.80;1.00
9949;DHT22;5013;51.840;8.276;2023-07-20T15:03:32;23.90;1.00
9949;DHT22;5013;51.840;8.276;2023-07-20T15:05:57;24.00;1.00
9949;DHT22;5013;51.840;8.276;2023-07-20T15:08:23;24.20;1.00
9949;DHT22;5013;51.840;8.276;2023-07-20T15:10:49;24.30;1.00
9949;DHT22;5013;51.840;8.276;2023-07-20T15:13:15;24.70;1.00
9949;DHT22;5013;51.840;8.276;2023-07-20T15:15:41;24.70;1.00
9949;DHT22;5013;51.840;8.276;2023-07-20T15:18:08;24.60;1.00
9949;DHT22;5013;51.840;8.276;2023-07-20T15:20:34;24.60;1.00
9949;DHT22;5013;51.840;8.276;2023-07-20T15:22:59;24.20;1.00
9949;DHT22;5013;51.840;8.276;2023-07-20T15:25:25;24.10;1.00
9949;DHT22;5013;51.840;8.276;2023-07-20T15:27:50;24.40;1.00
9949;DHT22;5013;51.840;8.276;2023-07-20T15:30:17;24.40;1.00
9949;DHT22;5013;51.840;8.276;2023-07-20T15:32:42;24.20;1.00
9949;DHT22;5013;51.840;8.276;2023-07-20T15:35:09;24.10;1.00
9949;DHT22;5013;51.840;8.276;2023-07-20T15:37:36;24.00;1.00
9949;DHT22;5013;51.840;8.276;2023-07-20T15:40:02;24.20;1.00
9949;DHT22;5013;51.840;8.276;2023-07-20T15:42:31;24.20;1.00
9949;DHT22;5013;51.840;8.276;2023-07-20T15:44:56;24.10;1.00
9949;DHT22;5013;51.840;8.276;2023-07-20T15:47:22;24.10;1.00
9949;DHT22;5013;51.840;8.276;2023-07-20T15:49:48;24.30;1.00
9949;DHT22;5013;51.840;8.276;2023-07-20T15:52:14;24.30;1.00
9949;DHT22;5013;51.840;8.276;2023-07-20T15:54:40;24.60;1.00
9949;DHT22;5013;51.840;8.276;2023-07-20T15:57:07;24.70;1.00
9949;DHT22;5013;51.840;8.276;2023-07-20T15:59:34;24.50;1.00
9949;DHT22;5013;51.840;8.276;2023-07-20T16:02:00;24.50;1.00
9949;DHT22;5013;51.840;8.276;2023-07-20T16:04:25;24.50;1.00
9949;DHT22;5013;51.840;8.276;2023-07-20T16:06:51;24.50;1.00
9949;DHT22;5013;51.840;8.276;2023-07-20T16:09:17;24.60;1.00
9949;DHT22;5013;51.840;8.276;2023-07-20T16:11:42;24.50;1.00
9949;DHT22;5013;51.840;8.276;2023-07-20T16:14:08;24.50;1.00
9949;DHT22;5013;51.840;8.276;2023-07-20T16:16:36;24.60;1.00
9949;DHT22;5013;51.840;8.276;2023-07-20T16:19:03;24.50;1.00
9949;DHT22;5013;51.840;8.276;2023-07-20T16:21:28;24.50;1.00
9949;DHT22;5013;51.840;8.276;2023-07-20T16:23:54;24.20;1.00
9949;DHT22;5013;51.840;8.276;2023-07-20T16:26:20;24.10;1.00
9949;DHT22;5013;51.840;8.276;2023-07-20T16:28:45;24.10;1.00
9949;DHT22;5013;51.840;8.276;2023-07-20T16:31:15;24.10;1.00